Terminal Aerodrome Forecast
Issued by NWS Blacksburg, VA

Current Version | Previous Version | Text Only | Print | Product List | Glossary Off
Versions: 1 2 3 4 5 6 7 8 9 10 11 12 13

000
FTUS41 KRNK 271142
TAFBLF
TAF
KBLF 271142Z 2712/2812 VRB04KT P6SM SCT050 BKN100 BKN250
     FM271400 24005KT P6SM SCT050 BKN100 BKN250
     FM271900 23006KT P6SM VCTS BKN045CB OVC090
     FM280000 VRB04KT P6SM BKN045 OVC100
     FM280600 15004KT P6SM SCT050 SCT100 BKN250=

USA.gov is the U.S. government's official web portal to all federal, state and local government web resources and services.